Time;durP1;ratioP1;P1;durP2;ratioP2;P2;SDS_P1;SDS_P2;PMS_P1;PMS_P2;Temp;Humidity;BMP_temperature;BMP_pressure;BME280_temperature;BME280_humidity;BME280_pressure;Samples;Min_cycle;Max_cycle;Signal;HPM_P1;HPM_P2
2019/05/09 00:00:22;;;;;;;1;0.9;;;;;;;9.04;71.9873;93999.95;;;;
2019/05/09 00:01:25;;;;;;;1;0.9;;;;;;;9.04;71.9873;93999.95;;;;
2019/05/09 00:02:36;;;;;;;1;0.9;;;;;;;9.04;71.9873;93999.95;;;;
2019/05/09 00:03:37;;;;;;;1;0.9;;;;;;;9.04;71.9873;93999.95;;;;
2019/05/09 00:04:38;;;;;;;1.05;0.95;;;;;;;8.89;72.58203;93993.39;;;;
2019/05/09 00:05:39;;;;;;;1.05;0.95;;;;;;;8.89;72.58203;93993.39;;;;
2019/05/09 00:06:40;;;;;;;1.05;0.95;;;;;;;8.89;72.58203;93993.39;;;;
2019/05/09 00:07:41;;;;;;;1.05;0.95;;;;;;;8.89;72.58203;93993.39;;;;
2019/05/09 00:08:43;;;;;;;1.05;0.95;;;;;;;8.89;72.58203;93993.39;;;;
2019/05/09 00:09:44;;;;;;;1.05;0.95;;;;;;;8.89;72.58203;93993.39;;;;
2019/05/09 00:10:45;;;;;;;1.05;0.95;;;;;;;8.89;72.58203;93993.39;;;;
2019/05/09 00:11:46;;;;;;;1.05;0.95;;;;;;;8.89;72.58203;93993.39;;;;
2019/05/09 00:12:47;;;;;;;1.05;0.95;;;;;;;8.89;72.58203;93993.39;;;;
2019/05/09 00:13:48;;;;;;;1.05;0.95;;;;;;;8.89;72.58203;93993.39;;;;
2019/05/09 00:14:49;;;;;;;1.15;1.05;;;;;;;8.82;73.43359;93988.87;;;;
2019/05/09 00:15:50;;;;;;;1.15;1.05;;;;;;;8.82;73.43359;93988.87;;;;
2019/05/09 00:16:51;;;;;;;1.15;1.05;;;;;;;8.82;73.43359;93988.87;;;;
2019/05/09 00:17:52;;;;;;;1.15;1.05;;;;;;;8.82;73.43359;93988.87;;;;
2019/05/09 00:18:53;;;;;;;1.15;1.05;;;;;;;8.82;73.43359;93988.87;;;;
2019/05/09 00:19:58;;;;;;;1.15;1.05;;;;;;;8.82;73.43359;93988.87;;;;
2019/05/09 00:21:06;;;;;;;1.15;1.05;;;;;;;8.82;73.43359;93988.87;;;;
2019/05/09 00:22:08;;;;;;;1.15;1.05;;;;;;;8.82;73.43359;93988.87;;;;
2019/05/09 00:23:09;;;;;;;1.15;1.05;;;;;;;8.82;73.43359;93988.87;;;;
2019/05/09 00:24:10;;;;;;;1.15;1.05;;;;;;;8.82;73.43359;93988.87;;;;
2019/05/09 00:25:11;;;;;;;2.1;1;;;;;;;8.67;73.4502;93989.17;;;;
2019/05/09 00:26:12;;;;;;;2.1;1;;;;;;;8.67;73.4502;93989.17;;;;
2019/05/09 00:27:13;;;;;;;2.1;1;;;;;;;8.67;73.4502;93989.17;;;;
2019/05/09 00:28:14;;;;;;;2.1;1;;;;;;;8.67;73.4502;93989.17;;;;
2019/05/09 00:29:21;;;;;;;2.1;1;;;;;;;8.67;73.4502;93989.17;;;;
2019/05/09 00:35:34;;;;;;;2.1;1;;;;;;;8.67;73.4502;93989.17;;;;
2019/05/09 00:36:35;;;;;;;1.05;0.95;;;;;;;8.62;74.31641;94004.86;;;;
2019/05/09 00:38:08;;;;;;;1.05;0.95;;;;;;;8.62;74.31641;94004.86;;;;
2019/05/09 00:39:09;;;;;;;1.05;0.95;;;;;;;8.62;74.31641;94004.86;;;;
2019/05/09 00:40:10;;;;;;;1.05;0.95;;;;;;;8.62;74.31641;94004.86;;;;
2019/05/09 00:41:11;;;;;;;1.05;0.95;;;;;;;8.62;74.31641;94004.86;;;;
2019/05/09 00:42:12;;;;;;;1.05;0.95;;;;;;;8.62;74.31641;94004.86;;;;
2019/05/09 00:43:13;;;;;;;1.05;0.95;;;;;;;8.62;74.31641;94004.86;;;;
2019/05/09 00:44:19;;;;;;;1.05;0.95;;;;;;;8.62;74.31641;94004.86;;;;
2019/05/09 00:46:25;;;;;;;1.05;0.95;;;;;;;8.62;74.31641;94004.86;;;;
2019/05/09 00:47:27;;;;;;;1.3;1.05;;;;;;;8.47;74.83398;93994.36;;;;
2019/05/09 00:48:34;;;;;;;1.3;1.05;;;;;;;8.47;74.83398;93994.36;;;;
2019/05/09 00:49:36;;;;;;;1.3;1.05;;;;;;;8.47;74.83398;93994.36;;;;
2019/05/09 00:50:37;;;;;;;1.3;1.05;;;;;;;8.47;74.83398;93994.36;;;;
2019/05/09 00:51:38;;;;;;;1.3;1.05;;;;;;;8.47;74.83398;93994.36;;;;
2019/05/09 00:52:39;;;;;;;1.3;1.05;;;;;;;8.47;74.83398;93994.36;;;;
2019/05/09 00:53:40;;;;;;;1.3;1.05;;;;;;;8.47;74.83398;93994.36;;;;
2019/05/09 00:54:41;;;;;;;1.3;1.05;;;;;;;8.47;74.83398;93994.36;;;;
2019/05/09 00:55:42;;;;;;;1.3;1.05;;;;;;;8.47;74.83398;93994.36;;;;
2019/05/09 00:56:43;;;;;;;1.3;1.05;;;;;;;8.47;74.83398;93994.36;;;;
2019/05/09 00:57:44;;;;;;;1.4;1.05;;;;;;;8.41;75.44141;93987.17;;;;
2019/05/09 00:58:45;;;;;;;1.4;1.05;;;;;;;8.41;75.44141;93987.17;;;;
2019/05/09 00:59:46;;;;;;;1.4;1.05;;;;;;;8.41;75.44141;93987.17;;;;
2019/05/09 01:00:47;;;;;;;1.4;1.05;;;;;;;8.41;75.44141;93987.17;;;;
2019/05/09 01:01:49;;;;;;;1.4;1.05;;;;;;;8.41;75.44141;93987.17;;;;
2019/05/09 01:02:50;;;;;;;1.4;1.05;;;;;;;8.41;75.44141;93987.17;;;;
2019/05/09 01:03:51;;;;;;;1.4;1.05;;;;;;;8.41;75.44141;93987.17;;;;
2019/05/09 01:04:52;;;;;;;1.4;1.05;;;;;;;8.41;75.44141;93987.17;;;;
2019/05/09 01:05:53;;;;;;;1.4;1.05;;;;;;;8.41;75.44141;93987.17;;;;
2019/05/09 01:06:54;;;;;;;1.4;1.05;;;;;;;8.41;75.44141;93987.17;;;;
2019/05/09 01:07:55;;;;;;;1.15;1.05;;;;;;;8.32;75.52051;93989.22;;;;
2019/05/09 01:08:56;;;;;;;1.15;1.05;;;;;;;8.32;75.52051;93989.22;;;;
2019/05/09 01:09:57;;;;;;;1.15;1.05;;;;;;;8.32;75.52051;93989.22;;;;
2019/05/09 01:10:58;;;;;;;1.15;1.05;;;;;;;8.32;75.52051;93989.22;;;;
2019/05/09 01:11:59;;;;;;;1.15;1.05;;;;;;;8.32;75.52051;93989.22;;;;
2019/05/09 01:13:00;;;;;;;1.15;1.05;;;;;;;8.32;75.52051;93989.22;;;;
2019/05/09 01:14:01;;;;;;;1.15;1.05;;;;;;;8.32;75.52051;93989.22;;;;
2019/05/09 01:15:03;;;;;;;1.15;1.05;;;;;;;8.32;75.52051;93989.22;;;;
2019/05/09 01:16:04;;;;;;;1.15;1.05;;;;;;;8.32;75.52051;93989.22;;;;
2019/05/09 01:17:05;;;;;;;1.15;1.05;;;;;;;8.32;75.52051;93989.22;;;;
2019/05/09 01:18:06;;;;;;;1.15;1;;;;;;;8.29;75.87695;93972.27;;;;
2019/05/09 01:19:07;;;;;;;1.15;1;;;;;;;8.29;75.87695;93972.27;;;;
2019/05/09 01:20:08;;;;;;;1.15;1;;;;;;;8.29;75.87695;93972.27;;;;
2019/05/09 01:21:09;;;;;;;1.15;1;;;;;;;8.29;75.87695;93972.27;;;;
2019/05/09 01:22:11;;;;;;;1.15;1;;;;;;;8.29;75.87695;93972.27;;;;
2019/05/09 01:23:12;;;;;;;1.15;1;;;;;;;8.29;75.87695;93972.27;;;;
2019/05/09 01:24:13;;;;;;;1.15;1;;;;;;;8.29;75.87695;93972.27;;;;
2019/05/09 01:25:14;;;;;;;1.15;1;;;;;;;8.29;75.87695;93972.27;;;;
2019/05/09 01:26:15;;;;;;;1.15;1;;;;;;;8.29;75.87695;93972.27;;;;
2019/05/09 01:27:16;;;;;;;1.15;1;;;;;;;8.29;75.87695;93972.27;;;;
2019/05/09 01:28:17;;;;;;;1.15;1;;;;;;;8.29;75.87695;93972.27;;;;
2019/05/09 01:29:18;;;;;;;0.9;0.9;;;;;;;8.21;76.01367;93979.39;;;;
2019/05/09 01:30:19;;;;;;;0.9;0.9;;;;;;;8.21;76.01367;93979.39;;;;
2019/05/09 01:31:20;;;;;;;0.9;0.9;;;;;;;8.21;76.01367;93979.39;;;;
2019/05/09 01:32:38;;;;;;;0.9;0.9;;;;;;;8.21;76.01367;93979.39;;;;
2019/05/09 01:33:55;;;;;;;0.9;0.9;;;;;;;8.21;76.01367;93979.39;;;;
2019/05/09 01:34:57;;;;;;;0.9;0.9;;;;;;;8.21;76.01367;93979.39;;;;
2019/05/09 01:35:58;;;;;;;0.9;0.9;;;;;;;8.21;76.01367;93979.39;;;;
2019/05/09 01:37:07;;;;;;;0.9;0.9;;;;;;;8.21;76.01367;93979.39;;;;
2019/05/09 01:38:08;;;;;;;0.9;0.9;;;;;;;8.21;76.01367;93979.39;;;;
2019/05/09 01:39:09;;;;;;;0.9;0.9;;;;;;;8.21;76.01367;93979.39;;;;
2019/05/09 01:40:10;;;;;;;1.15;1.1;;;;;;;8.23;76.22949;93975.92;;;;
2019/05/09 01:41:11;;;;;;;1.15;1.1;;;;;;;8.23;76.22949;93975.92;;;;
2019/05/09 01:42:12;;;;;;;1.15;1.1;;;;;;;8.23;76.22949;93975.92;;;;
2019/05/09 01:43:13;;;;;;;1.15;1.1;;;;;;;8.23;76.22949;93975.92;;;;
2019/05/09 01:44:15;;;;;;;1.15;1.1;;;;;;;8.23;76.22949;93975.92;;;;
2019/05/09 01:45:16;;;;;;;1.15;1.1;;;;;;;8.23;76.22949;93975.92;;;;
2019/05/09 01:46:17;;;;;;;1.15;1.1;;;;;;;8.23;76.22949;93975.92;;;;
2019/05/09 01:47:18;;;;;;;1.15;1.1;;;;;;;8.23;76.22949;93975.92;;;;
2019/05/09 01:48:19;;;;;;;1.15;1.1;;;;;;;8.23;76.22949;93975.92;;;;
2019/05/09 01:49:20;;;;;;;1.15;1.1;;;;;;;8.23;76.22949;93975.92;;;;
2019/05/09 01:50:21;;;;;;;1.5;1.1;;;;;;;8.16;76.71582;93961.46;;;;
2019/05/09 01:51:22;;;;;;;1.5;1.1;;;;;;;8.16;76.71582;93961.46;;;;
2019/05/09 01:52:23;;;;;;;1.5;1.1;;;;;;;8.16;76.71582;93961.46;;;;
2019/05/09 01:53:28;;;;;;;1.5;1.1;;;;;;;8.16;76.71582;93961.46;;;;
2019/05/09 01:54:30;;;;;;;1.5;1.1;;;;;;;8.16;76.71582;93961.46;;;;
2019/05/09 01:56:02;;;;;;;1.5;1.1;;;;;;;8.16;76.71582;93961.46;;;;
2019/05/09 01:57:03;;;;;;;1.5;1.1;;;;;;;8.16;76.71582;93961.46;;;;
2019/05/09 01:58:05;;;;;;;1.5;1.1;;;;;;;8.16;76.71582;93961.46;;;;
2019/05/09 01:59:06;;;;;;;1.5;1.1;;;;;;;8.16;76.71582;93961.46;;;;
2019/05/09 02:00:07;;;;;;;1.5;1.1;;;;;;;8.16;76.71582;93961.46;;;;
2019/05/09 02:01:08;;;;;;;0.7;0.7;;;;;;;8.15;76.7334;93953.13;;;;
2019/05/09 02:02:10;;;;;;;0.7;0.7;;;;;;;8.15;76.7334;93953.13;;;;
2019/05/09 02:03:11;;;;;;;0.7;0.7;;;;;;;8.15;76.7334;93953.13;;;;
2019/05/09 02:04:12;;;;;;;0.7;0.7;;;;;;;8.15;76.7334;93953.13;;;;
2019/05/09 02:05:13;;;;;;;0.7;0.7;;;;;;;8.15;76.7334;93953.13;;;;
2019/05/09 02:06:14;;;;;;;0.7;0.7;;;;;;;8.15;76.7334;93953.13;;;;
2019/05/09 02:07:15;;;;;;;0.7;0.7;;;;;;;8.15;76.7334;93953.13;;;;
2019/05/09 02:08:16;;;;;;;0.7;0.7;;;;;;;8.15;76.7334;93953.13;;;;
2019/05/09 02:09:17;;;;;;;0.7;0.7;;;;;;;8.15;76.7334;93953.13;;;;
2019/05/09 02:10:18;;;;;;;0.7;0.7;;;;;;;8.15;76.7334;93953.13;;;;
2019/05/09 02:11:19;;;;;;;1.4;1.1;;;;;;;8.06;76.625;93960.82;;;;
2019/05/09 02:12:21;;;;;;;1.4;1.1;;;;;;;8.06;76.625;93960.82;;;;
2019/05/09 02:13:22;;;;;;;1.4;1.1;;;;;;;8.06;76.625;93960.82;;;;
2019/05/09 02:14:31;;;;;;;1.4;1.1;;;;;;;8.06;76.625;93960.82;;;;
2019/05/09 02:15:41;;;;;;;1.4;1.1;;;;;;;8.06;76.625;93960.82;;;;
2019/05/09 02:16:51;;;;;;;1.4;1.1;;;;;;;8.06;76.625;93960.82;;;;
2019/05/09 02:18:06;;;;;;;1.4;1.1;;;;;;;8.06;76.625;93960.82;;;;
2019/05/09 02:19:13;;;;;;;1.4;1.1;;;;;;;8.06;76.625;93960.82;;;;
2019/05/09 02:20:14;;;;;;;1.4;1.1;;;;;;;8.06;76.625;93960.82;;;;
2019/05/09 02:21:15;;;;;;;1.4;1.1;;;;;;;8.06;76.625;93960.82;;;;
2019/05/09 02:22:32;;;;;;;0.9;0.9;;;;;;;8.1;76.61035;93956.56;;;;
2019/05/09 02:23:33;;;;;;;0.9;0.9;;;;;;;8.1;76.61035;93956.56;;;;
2019/05/09 02:24:34;;;;;;;0.9;0.9;;;;;;;8.1;76.61035;93956.56;;;;
2019/05/09 02:25:35;;;;;;;0.9;0.9;;;;;;;8.1;76.61035;93956.56;;;;
2019/05/09 02:26:36;;;;;;;0.9;0.9;;;;;;;8.1;76.61035;93956.56;;;;
2019/05/09 02:27:37;;;;;;;0.9;0.9;;;;;;;8.1;76.61035;93956.56;;;;
2019/05/09 02:28:38;;;;;;;0.9;0.9;;;;;;;8.1;76.61035;93956.56;;;;
2019/05/09 02:29:40;;;;;;;0.9;0.9;;;;;;;8.1;76.61035;93956.56;;;;
2019/05/09 02:30:41;;;;;;;0.9;0.9;;;;;;;8.1;76.61035;93956.56;;;;
2019/05/09 02:31:42;;;;;;;0.9;0.9;;;;;;;8.1;76.61035;93956.56;;;;
2019/05/09 02:32:43;;;;;;;0.8;0.8;;;;;;;8.06;76.89941;93950.61;;;;
2019/05/09 02:33:44;;;;;;;0.8;0.8;;;;;;;8.06;76.89941;93950.61;;;;
2019/05/09 02:34:45;;;;;;;0.8;0.8;;;;;;;8.06;76.89941;93950.61;;;;
2019/05/09 02:35:46;;;;;;;0.8;0.8;;;;;;;8.06;76.89941;93950.61;;;;
2019/05/09 02:36:47;;;;;;;0.8;0.8;;;;;;;8.06;76.89941;93950.61;;;;
2019/05/09 02:37:48;;;;;;;0.8;0.8;;;;;;;8.06;76.89941;93950.61;;;;
2019/05/09 02:38:49;;;;;;;0.8;0.8;;;;;;;8.06;76.89941;93950.61;;;;
2019/05/09 02:39:50;;;;;;;0.8;0.8;;;;;;;8.06;76.89941;93950.61;;;;
2019/05/09 02:40:51;;;;;;;0.8;0.8;;;;;;;8.06;76.89941;93950.61;;;;
2019/05/09 02:41:52;;;;;;;0.8;0.8;;;;;;;8.06;76.89941;93950.61;;;;
2019/05/09 02:42:53;;;;;;;0.9;0.9;;;;;;;8.06;76.80371;93945.65;;;;
2019/05/09 02:43:55;;;;;;;0.9;0.9;;;;;;;8.06;76.80371;93945.65;;;;
2019/05/09 02:44:56;;;;;;;0.9;0.9;;;;;;;8.06;76.80371;93945.65;;;;
2019/05/09 02:46:03;;;;;;;0.9;0.9;;;;;;;8.06;76.80371;93945.65;;;;
2019/05/09 02:47:09;;;;;;;0.9;0.9;;;;;;;8.06;76.80371;93945.65;;;;
2019/05/09 02:48:11;;;;;;;0.9;0.9;;;;;;;8.06;76.80371;93945.65;;;;
2019/05/09 02:49:12;;;;;;;0.9;0.9;;;;;;;8.06;76.80371;93945.65;;;;
2019/05/09 02:50:13;;;;;;;0.9;0.9;;;;;;;8.06;76.80371;93945.65;;;;
2019/05/09 02:51:14;;;;;;;0.9;0.9;;;;;;;8.06;76.80371;93945.65;;;;
2019/05/09 02:52:15;;;;;;;0.9;0.9;;;;;;;8.06;76.80371;93945.65;;;;
2019/05/09 02:53:16;;;;;;;0.9;0.9;;;;;;;8.06;76.80371;93945.65;;;;
2019/05/09 02:54:17;;;;;;;0.9;0.9;;;;;;;7.95;76.7959;93943.91;;;;
2019/05/09 02:55:18;;;;;;;0.9;0.9;;;;;;;7.95;76.7959;93943.91;;;;
2019/05/09 02:56:19;;;;;;;0.9;0.9;;;;;;;7.95;76.7959;93943.91;;;;
2019/05/09 02:57:20;;;;;;;0.9;0.9;;;;;;;7.95;76.7959;93943.91;;;;
2019/05/09 02:58:22;;;;;;;0.9;0.9;;;;;;;7.95;76.7959;93943.91;;;;
2019/05/09 02:59:34;;;;;;;0.9;0.9;;;;;;;7.95;76.7959;93943.91;;;;
2019/05/09 03:01:01;;;;;;;0.9;0.9;;;;;;;7.95;76.7959;93943.91;;;;
2019/05/09 03:02:13;;;;;;;0.9;0.9;;;;;;;7.95;76.7959;93943.91;;;;
2019/05/09 03:03:19;;;;;;;0.9;0.9;;;;;;;7.95;76.7959;93943.91;;;;
2019/05/09 03:04:20;;;;;;;0.85;0.8;;;;;;;7.88;77.1123;93943.3;;;;
2019/05/09 03:05:21;;;;;;;0.85;0.8;;;;;;;7.88;77.1123;93943.3;;;;
2019/05/09 03:06:22;;;;;;;0.85;0.8;;;;;;;7.88;77.1123;93943.3;;;;
2019/05/09 03:07:47;;;;;;;0.85;0.8;;;;;;;7.88;77.1123;93943.3;;;;
2019/05/09 03:08:48;;;;;;;0.85;0.8;;;;;;;7.88;77.1123;93943.3;;;;
2019/05/09 03:09:49;;;;;;;0.85;0.8;;;;;;;7.88;77.1123;93943.3;;;;
2019/05/09 03:10:50;;;;;;;0.85;0.8;;;;;;;7.88;77.1123;93943.3;;;;
2019/05/09 03:11:51;;;;;;;0.85;0.8;;;;;;;7.88;77.1123;93943.3;;;;
2019/05/09 03:12:52;;;;;;;0.85;0.8;;;;;;;7.88;77.1123;93943.3;;;;
2019/05/09 03:13:53;;;;;;;0.85;0.8;;;;;;;7.88;77.1123;93943.3;;;;
2019/05/09 03:14:54;;;;;;;0.9;0.9;;;;;;;7.75;77.22656;93943.68;;;;
2019/05/09 03:16:00;;;;;;;0.9;0.9;;;;;;;7.75;77.22656;93943.68;;;;
2019/05/09 03:17:02;;;;;;;0.9;0.9;;;;;;;7.75;77.22656;93943.68;;;;
2019/05/09 03:18:03;;;;;;;0.9;0.9;;;;;;;7.75;77.22656;93943.68;;;;
2019/05/09 03:19:04;;;;;;;0.9;0.9;;;;;;;7.75;77.22656;93943.68;;;;
2019/05/09 03:20:08;;;;;;;0.9;0.9;;;;;;;7.75;77.22656;93943.68;;;;
2019/05/09 03:24:39;;;;;;;0.9;0.9;;;;;;;7.75;77.22656;93943.68;;;;
2019/05/09 03:25:40;;;;;;;1.05;1.05;;;;;;;7.75;77.47266;93939.51;;;;
2019/05/09 03:26:43;;;;;;;1.05;1.05;;;;;;;7.75;77.47266;93939.51;;;;
2019/05/09 03:27:47;;;;;;;1.05;1.05;;;;;;;7.75;77.47266;93939.51;;;;
2019/05/09 03:29:08;;;;;;;1.05;1.05;;;;;;;7.75;77.47266;93939.51;;;;
2019/05/09 03:30:12;;;;;;;1.05;1.05;;;;;;;7.75;77.47266;93939.51;;;;
2019/05/09 03:31:15;;;;;;;1.05;1.05;;;;;;;7.75;77.47266;93939.51;;;;
2019/05/09 03:32:17;;;;;;;1.05;1.05;;;;;;;7.75;77.47266;93939.51;;;;
2019/05/09 03:33:18;;;;;;;1.05;1.05;;;;;;;7.75;77.47266;93939.51;;;;
2019/05/09 03:34:19;;;;;;;1.05;1.05;;;;;;;7.75;77.47266;93939.51;;;;
2019/05/09 03:35:20;;;;;;;1.05;1.05;;;;;;;7.75;77.47266;93939.51;;;;
2019/05/09 03:36:21;;;;;;;1.35;1.05;;;;;;;7.75;77.62109;93936.82;;;;
2019/05/09 03:37:22;;;;;;;1.35;1.05;;;;;;;7.75;77.62109;93936.82;;;;
2019/05/09 03:38:23;;;;;;;1.35;1.05;;;;;;;7.75;77.62109;93936.82;;;;
2019/05/09 03:39:24;;;;;;;1.35;1.05;;;;;;;7.75;77.62109;93936.82;;;;
2019/05/09 03:40:25;;;;;;;1.35;1.05;;;;;;;7.75;77.62109;93936.82;;;;
2019/05/09 03:41:26;;;;;;;1.35;1.05;;;;;;;7.75;77.62109;93936.82;;;;
2019/05/09 03:42:27;;;;;;;1.35;1.05;;;;;;;7.75;77.62109;93936.82;;;;
2019/05/09 03:43:28;;;;;;;1.35;1.05;;;;;;;7.75;77.62109;93936.82;;;;
2019/05/09 03:44:29;;;;;;;1.35;1.05;;;;;;;7.75;77.62109;93936.82;;;;
2019/05/09 03:45:31;;;;;;;1.35;1.05;;;;;;;7.75;77.62109;93936.82;;;;
2019/05/09 03:46:41;;;;;;;0.8;0.8;;;;;;;7.73;77.73438;93928.75;;;;
2019/05/09 03:47:47;;;;;;;0.8;0.8;;;;;;;7.73;77.73438;93928.75;;;;
2019/05/09 03:48:50;;;;;;;0.8;0.8;;;;;;;7.73;77.73438;93928.75;;;;
2019/05/09 03:50:23;;;;;;;0.8;0.8;;;;;;;7.73;77.73438;93928.75;;;;
2019/05/09 03:51:24;;;;;;;0.8;0.8;;;;;;;7.73;77.73438;93928.75;;;;
2019/05/09 03:52:25;;;;;;;0.8;0.8;;;;;;;7.73;77.73438;93928.75;;;;
2019/05/09 03:53:26;;;;;;;0.8;0.8;;;;;;;7.73;77.73438;93928.75;;;;
2019/05/09 03:54:27;;;;;;;0.8;0.8;;;;;;;7.73;77.73438;93928.75;;;;
2019/05/09 03:55:31;;;;;;;0.8;0.8;;;;;;;7.73;77.73438;93928.75;;;;
2019/05/09 03:56:41;;;;;;;0.8;0.8;;;;;;;7.73;77.73438;93928.75;;;;
2019/05/09 03:57:47;;;;;;;2.4;0.9;;;;;;;7.5;77.99023;93931.7;;;;
2019/05/09 03:58:49;;;;;;;2.4;0.9;;;;;;;7.5;77.99023;93931.7;;;;
2019/05/09 03:59:50;;;;;;;2.4;0.9;;;;;;;7.5;77.99023;93931.7;;;;
2019/05/09 04:00:51;;;;;;;2.4;0.9;;;;;;;7.5;77.99023;93931.7;;;;
2019/05/09 04:01:52;;;;;;;2.4;0.9;;;;;;;7.5;77.99023;93931.7;;;;
2019/05/09 04:02:53;;;;;;;2.4;0.9;;;;;;;7.5;77.99023;93931.7;;;;
2019/05/09 04:03:54;;;;;;;2.4;0.9;;;;;;;7.5;77.99023;93931.7;;;;
2019/05/09 04:04:55;;;;;;;2.4;0.9;;;;;;;7.5;77.99023;93931.7;;;;
2019/05/09 04:05:56;;;;;;;2.4;0.9;;;;;;;7.5;77.99023;93931.7;;;;
2019/05/09 04:06:57;;;;;;;2.4;0.9;;;;;;;7.5;77.99023;93931.7;;;;
2019/05/09 04:08:15;;;;;;;1.4;1.2;;;;;;;7.2;78.26465;93933.97;;;;
2019/05/09 04:09:16;;;;;;;1.4;1.2;;;;;;;7.2;78.26465;93933.97;;;;
2019/05/09 04:10:17;;;;;;;1.4;1.2;;;;;;;7.2;78.26465;93933.97;;;;
2019/05/09 04:11:18;;;;;;;1.4;1.2;;;;;;;7.2;78.26465;93933.97;;;;
2019/05/09 04:12:19;;;;;;;1.4;1.2;;;;;;;7.2;78.26465;93933.97;;;;
2019/05/09 04:13:23;;;;;;;1.4;1.2;;;;;;;7.2;78.26465;93933.97;;;;
2019/05/09 04:14:24;;;;;;;1.4;1.2;;;;;;;7.2;78.26465;93933.97;;;;
2019/05/09 04:15:26;;;;;;;1.4;1.2;;;;;;;7.2;78.26465;93933.97;;;;
2019/05/09 04:16:27;;;;;;;1.4;1.2;;;;;;;7.2;78.26465;93933.97;;;;
2019/05/09 04:17:41;;;;;;;1.4;1.2;;;;;;;7.2;78.26465;93933.97;;;;
2019/05/09 04:18:42;;;;;;;1.4;1.2;;;;;;;7.2;78.26465;93933.97;;;;
2019/05/09 04:19:43;;;;;;;1.4;1.2;;;;;;;7.2;78.26465;93933.97;;;;
2019/05/09 04:20:44;;;;;;;1.4;1.2;;;;;;;7.2;78.26465;93933.97;;;;
2019/05/09 04:21:45;;;;;;;1.4;1.2;;;;;;;7.2;78.26465;93933.97;;;;
2019/05/09 04:22:46;;;;;;;1.4;1.2;;;;;;;7.2;78.26465;93933.97;;;;
2019/05/09 04:23:47;;;;;;;1.4;1.2;;;;;;;7.2;78.26465;93933.97;;;;
2019/05/09 04:24:48;;;;;;;1.4;1.2;;;;;;;7.2;78.26465;93933.97;;;;
2019/05/09 04:26:51;;;;;;;1.4;1.2;;;;;;;7.2;78.26465;93933.97;;;;
2019/05/09 04:27:53;;;;;;;1.4;1.2;;;;;;;7.2;78.26465;93933.97;;;;
2019/05/09 04:28:54;;;;;;;1.4;1.2;;;;;;;7.2;78.26465;93933.97;;;;
2019/05/09 04:29:55;;;;;;;0.95;0.95;;;;;;;6.82;78.44043;93928.89;;;;
2019/05/09 04:30:56;;;;;;;0.95;0.95;;;;;;;6.82;78.44043;93928.89;;;;
2019/05/09 04:31:57;;;;;;;0.95;0.95;;;;;;;6.82;78.44043;93928.89;;;;
2019/05/09 04:32:58;;;;;;;0.95;0.95;;;;;;;6.82;78.44043;93928.89;;;;
2019/05/09 04:33:59;;;;;;;0.95;0.95;;;;;;;6.82;78.44043;93928.89;;;;
2019/05/09 04:35:00;;;;;;;0.95;0.95;;;;;;;6.82;78.44043;93928.89;;;;
2019/05/09 04:36:01;;;;;;;0.95;0.95;;;;;;;6.82;78.44043;93928.89;;;;
2019/05/09 04:37:02;;;;;;;0.95;0.95;;;;;;;6.82;78.44043;93928.89;;;;
2019/05/09 04:38:04;;;;;;;0.95;0.95;;;;;;;6.82;78.44043;93928.89;;;;
2019/05/09 04:39:05;;;;;;;0.95;0.95;;;;;;;6.82;78.44043;93928.89;;;;
2019/05/09 04:40:07;;;;;;;2.6;1.7;;;;;;;6.57;78.83008;93928.5;;;;
2019/05/09 04:41:08;;;;;;;2.6;1.7;;;;;;;6.57;78.83008;93928.5;;;;
2019/05/09 04:42:09;;;;;;;2.6;1.7;;;;;;;6.57;78.83008;93928.5;;;;
2019/05/09 04:43:10;;;;;;;2.6;1.7;;;;;;;6.57;78.83008;93928.5;;;;
2019/05/09 04:44:16;;;;;;;2.6;1.7;;;;;;;6.57;78.83008;93928.5;;;;
2019/05/09 04:45:37;;;;;;;2.6;1.7;;;;;;;6.57;78.83008;93928.5;;;;
2019/05/09 04:46:39;;;;;;;2.6;1.7;;;;;;;6.57;78.83008;93928.5;;;;
2019/05/09 04:47:40;;;;;;;2.6;1.7;;;;;;;6.57;78.83008;93928.5;;;;
2019/05/09 04:48:41;;;;;;;2.6;1.7;;;;;;;6.57;78.83008;93928.5;;;;
2019/05/09 04:49:42;;;;;;;2.6;1.7;;;;;;;6.57;78.83008;93928.5;;;;
2019/05/09 04:50:43;;;;;;;2.4;1.05;;;;;;;6.43;79.22754;93935.25;;;;
2019/05/09 04:51:44;;;;;;;2.4;1.05;;;;;;;6.43;79.22754;93935.25;;;;
2019/05/09 04:52:45;;;;;;;2.4;1.05;;;;;;;6.43;79.22754;93935.25;;;;
2019/05/09 04:53:46;;;;;;;2.4;1.05;;;;;;;6.43;79.22754;93935.25;;;;
2019/05/09 04:54:47;;;;;;;2.4;1.05;;;;;;;6.43;79.22754;93935.25;;;;
2019/05/09 04:55:48;;;;;;;2.4;1.05;;;;;;;6.43;79.22754;93935.25;;;;
2019/05/09 04:56:49;;;;;;;2.4;1.05;;;;;;;6.43;79.22754;93935.25;;;;
2019/05/09 04:57:50;;;;;;;2.4;1.05;;;;;;;6.43;79.22754;93935.25;;;;
2019/05/09 04:58:51;;;;;;;2.4;1.05;;;;;;;6.43;79.22754;93935.25;;;;
2019/05/09 04:59:52;;;;;;;2.4;1.05;;;;;;;6.43;79.22754;93935.25;;;;
2019/05/09 05:01:17;;;;;;;1.3;1.2;;;;;;;6.3;79.35156;93942.67;;;;
2019/05/09 05:02:26;;;;;;;1.3;1.2;;;;;;;6.3;79.35156;93942.67;;;;
2019/05/09 05:03:27;;;;;;;1.3;1.2;;;;;;;6.3;79.35156;93942.67;;;;
2019/05/09 05:04:28;;;;;;;1.3;1.2;;;;;;;6.3;79.35156;93942.67;;;;
2019/05/09 05:05:29;;;;;;;1.3;1.2;;;;;;;6.3;79.35156;93942.67;;;;
2019/05/09 05:06:30;;;;;;;1.3;1.2;;;;;;;6.3;79.35156;93942.67;;;;
2019/05/09 05:07:31;;;;;;;1.3;1.2;;;;;;;6.3;79.35156;93942.67;;;;
2019/05/09 05:08:32;;;;;;;1.3;1.2;;;;;;;6.3;79.35156;93942.67;;;;
2019/05/09 05:09:33;;;;;;;1.3;1.2;;;;;;;6.3;79.35156;93942.67;;;;
2019/05/09 05:10:34;;;;;;;1.3;1.2;;;;;;;6.3;79.35156;93942.67;;;;
2019/05/09 05:11:36;;;;;;;2.3;1.4;;;;;;;6.35;79.62598;93949.45;;;;
2019/05/09 05:12:37;;;;;;;2.3;1.4;;;;;;;6.35;79.62598;93949.45;;;;
2019/05/09 05:13:38;;;;;;;2.3;1.4;;;;;;;6.35;79.62598;93949.45;;;;
2019/05/09 05:14:39;;;;;;;2.3;1.4;;;;;;;6.35;79.62598;93949.45;;;;
2019/05/09 05:15:40;;;;;;;2.3;1.4;;;;;;;6.35;79.62598;93949.45;;;;
2019/05/09 05:16:41;;;;;;;2.3;1.4;;;;;;;6.35;79.62598;93949.45;;;;
2019/05/09 05:17:42;;;;;;;2.3;1.4;;;;;;;6.35;79.62598;93949.45;;;;
2019/05/09 05:18:43;;;;;;;2.3;1.4;;;;;;;6.35;79.62598;93949.45;;;;
2019/05/09 05:19:44;;;;;;;2.3;1.4;;;;;;;6.35;79.62598;93949.45;;;;
2019/05/09 05:20:45;;;;;;;2.3;1.4;;;;;;;6.35;79.62598;93949.45;;;;
2019/05/09 05:21:46;;;;;;;2.3;1.4;;;;;;;6.35;79.62598;93949.45;;;;
2019/05/09 05:22:51;;;;;;;2.1;1.1;;;;;;;6.53;79.74219;93946.68;;;;
2019/05/09 05:24:05;;;;;;;2.1;1.1;;;;;;;6.53;79.74219;93946.68;;;;
2019/05/09 05:25:07;;;;;;;2.1;1.1;;;;;;;6.53;79.74219;93946.68;;;;
2019/05/09 05:26:08;;;;;;;2.1;1.1;;;;;;;6.53;79.74219;93946.68;;;;
2019/05/09 05:27:09;;;;;;;2.1;1.1;;;;;;;6.53;79.74219;93946.68;;;;
2019/05/09 05:28:10;;;;;;;2.1;1.1;;;;;;;6.53;79.74219;93946.68;;;;
2019/05/09 05:29:11;;;;;;;2.1;1.1;;;;;;;6.53;79.74219;93946.68;;;;
2019/05/09 05:30:13;;;;;;;2.1;1.1;;;;;;;6.53;79.74219;93946.68;;;;
2019/05/09 05:31:14;;;;;;;2.1;1.1;;;;;;;6.53;79.74219;93946.68;;;;
2019/05/09 05:32:22;;;;;;;2.1;1.1;;;;;;;6.53;79.74219;93946.68;;;;
2019/05/09 05:33:29;;;;;;;1.65;1.2;;;;;;;7.06;79.62695;93952.83;;;;
2019/05/09 05:34:34;;;;;;;1.65;1.2;;;;;;;7.06;79.62695;93952.83;;;;
2019/05/09 05:35:39;;;;;;;1.65;1.2;;;;;;;7.06;79.62695;93952.83;;;;
2019/05/09 05:36:40;;;;;;;1.65;1.2;;;;;;;7.06;79.62695;93952.83;;;;
2019/05/09 05:37:41;;;;;;;1.65;1.2;;;;;;;7.06;79.62695;93952.83;;;;
2019/05/09 05:38:42;;;;;;;1.65;1.2;;;;;;;7.06;79.62695;93952.83;;;;
2019/05/09 05:39:43;;;;;;;1.65;1.2;;;;;;;7.06;79.62695;93952.83;;;;
2019/05/09 05:40:44;;;;;;;1.65;1.2;;;;;;;7.06;79.62695;93952.83;;;;
2019/05/09 05:41:45;;;;;;;1.65;1.2;;;;;;;7.06;79.62695;93952.83;;;;
2019/05/09 05:42:46;;;;;;;1.65;1.2;;;;;;;7.06;79.62695;93952.83;;;;
2019/05/09 05:43:47;;;;;;;2.35;1.3;;;;;;;7.48;79.41895;93957.58;;;;
2019/05/09 05:44:48;;;;;;;2.35;1.3;;;;;;;7.48;79.41895;93957.58;;;;
2019/05/09 05:45:56;;;;;;;2.35;1.3;;;;;;;7.48;79.41895;93957.58;;;;
2019/05/09 05:48:06;;;;;;;2.35;1.3;;;;;;;7.48;79.41895;93957.58;;;;
2019/05/09 05:49:08;;;;;;;2.35;1.3;;;;;;;7.48;79.41895;93957.58;;;;
2019/05/09 05:50:09;;;;;;;2.35;1.3;;;;;;;7.48;79.41895;93957.58;;;;
2019/05/09 05:51:10;;;;;;;2.35;1.3;;;;;;;7.48;79.41895;93957.58;;;;
2019/05/09 05:52:11;;;;;;;2.35;1.3;;;;;;;7.48;79.41895;93957.58;;;;
2019/05/09 05:53:12;;;;;;;2.35;1.3;;;;;;;7.48;79.41895;93957.58;;;;
2019/05/09 05:54:13;;;;;;;1.15;1;;;;;;;8.06;79.12012;93955.05;;;;
2019/05/09 05:55:14;;;;;;;1.15;1;;;;;;;8.06;79.12012;93955.05;;;;
2019/05/09 05:56:15;;;;;;;1.15;1;;;;;;;8.06;79.12012;93955.05;;;;
2019/05/09 05:57:16;;;;;;;1.15;1;;;;;;;8.06;79.12012;93955.05;;;;
2019/05/09 05:58:17;;;;;;;1.15;1;;;;;;;8.06;79.12012;93955.05;;;;
2019/05/09 05:59:18;;;;;;;1.15;1;;;;;;;8.06;79.12012;93955.05;;;;
2019/05/09 06:00:20;;;;;;;1.15;1;;;;;;;8.06;79.12012;93955.05;;;;
2019/05/09 06:01:22;;;;;;;1.15;1;;;;;;;8.06;79.12012;93955.05;;;;
2019/05/09 06:02:23;;;;;;;1.15;1;;;;;;;8.06;79.12012;93955.05;;;;
2019/05/09 06:03:24;;;;;;;1.15;1;;;;;;;8.06;79.12012;93955.05;;;;
2019/05/09 06:04:25;;;;;;;1.15;1;;;;;;;8.06;79.12012;93955.05;;;;
2019/05/09 06:05:26;;;;;;;3.45;1.4;;;;;;;8.54;78.63477;93958.12;;;;
2019/05/09 06:06:27;;;;;;;3.45;1.4;;;;;;;8.54;78.63477;93958.12;;;;
2019/05/09 06:07:28;;;;;;;3.45;1.4;;;;;;;8.54;78.63477;93958.12;;;;
2019/05/09 06:08:29;;;;;;;3.45;1.4;;;;;;;8.54;78.63477;93958.12;;;;
2019/05/09 06:09:30;;;;;;;3.45;1.4;;;;;;;8.54;78.63477;93958.12;;;;
2019/05/09 06:10:31;;;;;;;3.45;1.4;;;;;;;8.54;78.63477;93958.12;;;;
2019/05/09 06:11:32;;;;;;;3.45;1.4;;;;;;;8.54;78.63477;93958.12;;;;
2019/05/09 06:12:33;;;;;;;3.45;1.4;;;;;;;8.54;78.63477;93958.12;;;;
2019/05/09 06:13:34;;;;;;;3.45;1.4;;;;;;;8.54;78.63477;93958.12;;;;
2019/05/09 06:14:35;;;;;;;3.45;1.4;;;;;;;8.54;78.63477;93958.12;;;;
2019/05/09 06:15:36;;;;;;;2.2;1.2;;;;;;;9.12;78.33398;93962.59;;;;
2019/05/09 06:16:37;;;;;;;2.2;1.2;;;;;;;9.12;78.33398;93962.59;;;;
2019/05/09 06:17:38;;;;;;;2.2;1.2;;;;;;;9.12;78.33398;93962.59;;;;
2019/05/09 06:18:40;;;;;;;2.2;1.2;;;;;;;9.12;78.33398;93962.59;;;;
2019/05/09 06:19:41;;;;;;;2.2;1.2;;;;;;;9.12;78.33398;93962.59;;;;
2019/05/09 06:20:42;;;;;;;2.2;1.2;;;;;;;9.12;78.33398;93962.59;;;;